sensor_id;sensor_type;location;lat;lon;timestamp;temperature;humidity
20610;DHT22;10463;52.378;9.688;2023-06-14T00:01:40;31.50;17.00
20610;DHT22;10463;52.378;9.688;2023-06-14T00:04:24;31.40;16.90
20610;DHT22;10463;52.378;9.688;2023-06-14T00:07:11;31.40;16.90
20610;DHT22;10463;52.378;9.688;2023-06-14T00:09:58;31.40;16.90
20610;DHT22;10463;52.378;9.688;2023-06-14T00:12:42;31.40;16.90
20610;DHT22;10463;52.378;9.688;2023-06-14T00:15:27;31.40;17.00
20610;DHT22;10463;52.378;9.688;2023-06-14T00:18:13;31.40;17.00
20610;DHT22;10463;52.378;9.688;2023-06-14T00:20:58;31.40;17.00
20610;DHT22;10463;52.378;9.688;2023-06-14T00:23:44;31.40;17.00
20610;DHT22;10463;52.378;9.688;2023-06-14T00:26:29;31.40;17.00
20610;DHT22;10463;52.378;9.688;2023-06-14T00:29:14;31.40;17.00
20610;DHT22;10463;52.378;9.688;2023-06-14T00:31:59;31.40;17.00
20610;DHT22;10463;52.378;9.688;2023-06-14T00:34:44;31.40;17.00
20610;DHT22;10463;52.378;9.688;2023-06-14T00:37:29;31.30;17.00
20610;DHT22;10463;52.378;9.688;2023-06-14T00:40:15;31.30;17.00
20610;DHT22;10463;52.378;9.688;2023-06-14T00:43:00;31.30;17.00
20610;DHT22;10463;52.378;9.688;2023-06-14T00:45:45;31.30;17.10
20610;DHT22;10463;52.378;9.688;2023-06-14T00:48:32;31.30;17.00
20610;DHT22;10463;52.378;9.688;2023-06-14T00:51:18;31.30;17.10
20610;DHT22;10463;52.378;9.688;2023-06-14T00:54:03;31.30;17.00
20610;DHT22;10463;52.378;9.688;2023-06-14T00:56:49;31.30;17.10
20610;DHT22;10463;52.378;9.688;2023-06-14T00:59:35;31.30;17.10
20610;DHT22;10463;52.378;9.688;2023-06-14T01:02:23;31.30;17.10
20610;DHT22;10463;52.378;9.688;2023-06-14T01:05:09;31.30;17.10
20610;DHT22;10463;52.378;9.688;2023-06-14T01:08:14;31.30;17.10
20610;DHT22;10463;52.378;9.688;2023-06-14T01:11:12;31.30;17.10
20610;DHT22;10463;52.378;9.688;2023-06-14T01:14:00;31.30;17.20
20610;DHT22;10463;52.378;9.688;2023-06-14T01:16:47;31.30;17.10
20610;DHT22;10463;52.378;9.688;2023-06-14T01:19:32;31.20;17.10
20610;DHT22;10463;52.378;9.688;2023-06-14T01:22:18;31.20;17.10
20610;DHT22;10463;52.378;9.688;2023-06-14T01:25:07;31.20;17.20
20610;DHT22;10463;52.378;9.688;2023-06-14T01:27:57;31.20;17.20
20610;DHT22;10463;52.378;9.688;2023-06-14T01:30:47;31.20;17.20
20610;DHT22;10463;52.378;9.688;2023-06-14T01:33:35;31.20;17.20
20610;DHT22;10463;52.378;9.688;2023-06-14T01:36:21;31.20;17.20
20610;DHT22;10463;52.378;9.688;2023-06-14T01:39:07;31.20;17.20
20610;DHT22;10463;52.378;9.688;2023-06-14T01:41:54;31.20;17.20
20610;DHT22;10463;52.378;9.688;2023-06-14T01:44:40;31.20;17.30
20610;DHT22;10463;52.378;9.688;2023-06-14T01:47:26;31.20;17.30
20610;DHT22;10463;52.378;9.688;2023-06-14T01:50:12;31.20;17.40
20610;DHT22;10463;52.378;9.688;2023-06-14T01:52:57;31.20;17.40
20610;DHT22;10463;52.378;9.688;2023-06-14T01:55:42;31.10;17.40
20610;DHT22;10463;52.378;9.688;2023-06-14T01:58:29;31.10;17.40
20610;DHT22;10463;52.378;9.688;2023-06-14T02:01:15;31.10;17.40
20610;DHT22;10463;52.378;9.688;2023-06-14T02:04:03;31.10;17.40
20610;DHT22;10463;52.378;9.688;2023-06-14T02:06:48;31.10;17.40
20610;DHT22;10463;52.378;9.688;2023-06-14T02:09:32;31.10;17.40
20610;DHT22;10463;52.378;9.688;2023-06-14T02:12:17;31.10;17.40
20610;DHT22;10463;52.378;9.688;2023-06-14T02:15:05;31.10;17.40
20610;DHT22;10463;52.378;9.688;2023-06-14T02:17:50;31.10;17.40
20610;DHT22;10463;52.378;9.688;2023-06-14T02:20:35;31.10;17.40
20610;DHT22;10463;52.378;9.688;2023-06-14T02:23:20;31.10;17.40
20610;DHT22;10463;52.378;9.688;2023-06-14T02:26:05;31.10;17.40
20610;DHT22;10463;52.378;9.688;2023-06-14T02:28:52;31.10;17.40
20610;DHT22;10463;52.378;9.688;2023-06-14T02:31:38;31.10;17.90
20610;DHT22;10463;52.378;9.688;2023-06-14T02:34:23;31.10;17.40
20610;DHT22;10463;52.378;9.688;2023-06-14T02:37:07;31.10;17.40
20610;DHT22;10463;52.378;9.688;2023-06-14T02:39:52;31.00;17.30
20610;DHT22;10463;52.378;9.688;2023-06-14T02:42:37;31.00;17.30
20610;DHT22;10463;52.378;9.688;2023-06-14T02:45:22;31.00;17.30
20610;DHT22;10463;52.378;9.688;2023-06-14T02:48:08;31.00;17.30
20610;DHT22;10463;52.378;9.688;2023-06-14T02:50:53;31.00;17.30
20610;DHT22;10463;52.378;9.688;2023-06-14T02:53:38;31.00;17.30
20610;DHT22;10463;52.378;9.688;2023-06-14T02:56:23;31.00;17.30
20610;DHT22;10463;52.378;9.688;2023-06-14T02:59:08;31.00;17.30
20610;DHT22;10463;52.378;9.688;2023-06-14T03:01:54;31.00;17.30
20610;DHT22;10463;52.378;9.688;2023-06-14T03:04:41;31.00;17.30
20610;DHT22;10463;52.378;9.688;2023-06-14T03:07:31;31.00;17.30
20610;DHT22;10463;52.378;9.688;2023-06-14T03:10:18;31.00;17.30
20610;DHT22;10463;52.378;9.688;2023-06-14T03:13:04;31.00;17.30
20610;DHT22;10463;52.378;9.688;2023-06-14T03:15:49;31.00;17.30
20610;DHT22;10463;52.378;9.688;2023-06-14T03:18:36;31.00;17.30
20610;DHT22;10463;52.378;9.688;2023-06-14T03:21:25;30.90;17.30
20610;DHT22;10463;52.378;9.688;2023-06-14T03:24:12;30.90;17.30
20610;DHT22;10463;52.378;9.688;2023-06-14T03:26:57;30.90;17.30
20610;DHT22;10463;52.378;9.688;2023-06-14T03:29:43;30.90;17.30
20610;DHT22;10463;52.378;9.688;2023-06-14T03:32:29;30.90;17.30
20610;DHT22;10463;52.378;9.688;2023-06-14T03:35:18;30.90;17.30
20610;DHT22;10463;52.378;9.688;2023-06-14T03:38:07;30.90;17.30
20610;DHT22;10463;52.378;9.688;2023-06-14T03:40:52;30.90;17.30
20610;DHT22;10463;52.378;9.688;2023-06-14T03:43:36;30.90;17.80
20610;DHT22;10463;52.378;9.688;2023-06-14T03:46:21;30.90;17.30
20610;DHT22;10463;52.378;9.688;2023-06-14T03:49:07;30.90;17.30
20610;DHT22;10463;52.378;9.688;2023-06-14T03:51:52;30.90;17.30
20610;DHT22;10463;52.378;9.688;2023-06-14T03:54:40;30.90;17.30
20610;DHT22;10463;52.378;9.688;2023-06-14T03:57:26;30.90;17.30
20610;DHT22;10463;52.378;9.688;2023-06-14T04:00:13;30.90;17.30
20610;DHT22;10463;52.378;9.688;2023-06-14T04:03:00;30.90;17.30
20610;DHT22;10463;52.378;9.688;2023-06-14T04:05:44;30.90;17.30
20610;DHT22;10463;52.378;9.688;2023-06-14T04:08:34;30.90;17.30
20610;DHT22;10463;52.378;9.688;2023-06-14T04:11:20;30.90;17.30
20610;DHT22;10463;52.378;9.688;2023-06-14T04:14:06;30.80;17.30
20610;DHT22;10463;52.378;9.688;2023-06-14T04:16:50;30.90;17.40
20610;DHT22;10463;52.378;9.688;2023-06-14T04:19:37;30.80;17.30
20610;DHT22;10463;52.378;9.688;2023-06-14T04:22:22;30.90;17.40
20610;DHT22;10463;52.378;9.688;2023-06-14T04:25:07;30.80;17.40
20610;DHT22;10463;52.378;9.688;2023-06-14T04:27:54;30.80;17.40
20610;DHT22;10463;52.378;9.688;2023-06-14T04:30:40;30.80;17.40
20610;DHT22;10463;52.378;9.688;2023-06-14T04:33:25;30.80;17.40
20610;DHT22;10463;52.378;9.688;2023-06-14T04:36:12;30.80;17.40
20610;DHT22;10463;52.378;9.688;2023-06-14T04:38:58;30.80;17.50
20610;DHT22;10463;52.378;9.688;2023-06-14T04:45:03;30.80;17.50
20610;DHT22;10463;52.378;9.688;2023-06-14T04:47:49;30.80;17.50
20610;DHT22;10463;52.378;9.688;2023-06-14T04:50:35;30.80;17.50
20610;DHT22;10463;52.378;9.688;2023-06-14T04:53:21;30.80;17.50
20610;DHT22;10463;52.378;9.688;2023-06-14T04:56:08;30.80;17.50
20610;DHT22;10463;52.378;9.688;2023-06-14T04:58:52;30.80;17.50
20610;DHT22;10463;52.378;9.688;2023-06-14T05:01:40;30.80;17.60
20610;DHT22;10463;52.378;9.688;2023-06-14T05:04:25;30.80;17.60
20610;DHT22;10463;52.378;9.688;2023-06-14T05:07:11;30.80;17.60
20610;DHT22;10463;52.378;9.688;2023-06-14T05:09:56;30.80;17.60
20610;DHT22;10463;52.378;9.688;2023-06-14T05:12:41;30.80;17.60
20610;DHT22;10463;52.378;9.688;2023-06-14T05:15:28;30.80;17.70
20610;DHT22;10463;52.378;9.688;2023-06-14T05:18:15;30.80;17.60
20610;DHT22;10463;52.378;9.688;2023-06-14T05:21:00;30.80;17.60
20610;DHT22;10463;52.378;9.688;2023-06-14T05:23:45;30.80;17.70
20610;DHT22;10463;52.378;9.688;2023-06-14T05:26:29;30.80;17.70
20610;DHT22;10463;52.378;9.688;2023-06-14T05:29:15;30.70;17.70
20610;DHT22;10463;52.378;9.688;2023-06-14T05:32:00;30.80;17.70
20610;DHT22;10463;52.378;9.688;2023-06-14T05:34:46;30.70;17.70
20610;DHT22;10463;52.378;9.688;2023-06-14T05:37:31;30.70;17.70
20610;DHT22;10463;52.378;9.688;2023-06-14T05:40:16;30.70;17.70
20610;DHT22;10463;52.378;9.688;2023-06-14T05:43:02;30.70;17.70
20610;DHT22;10463;52.378;9.688;2023-06-14T05:45:47;30.70;17.70
20610;DHT22;10463;52.378;9.688;2023-06-14T05:48:32;30.70;17.80
20610;DHT22;10463;52.378;9.688;2023-06-14T05:51:18;30.70;17.80
20610;DHT22;10463;52.378;9.688;2023-06-14T05:54:03;30.70;17.80
20610;DHT22;10463;52.378;9.688;2023-06-14T05:56:48;30.70;17.80
20610;DHT22;10463;52.378;9.688;2023-06-14T05:59:34;30.70;17.80
20610;DHT22;10463;52.378;9.688;2023-06-14T06:02:19;30.70;17.80
20610;DHT22;10463;52.378;9.688;2023-06-14T06:05:05;30.70;17.80
20610;DHT22;10463;52.378;9.688;2023-06-14T06:07:52;30.70;17.80
20610;DHT22;10463;52.378;9.688;2023-06-14T06:10:36;30.70;17.80
20610;DHT22;10463;52.378;9.688;2023-06-14T06:13:21;30.70;17.80
20610;DHT22;10463;52.378;9.688;2023-06-14T06:16:06;30.70;17.90
20610;DHT22;10463;52.378;9.688;2023-06-14T06:18:51;30.70;17.90
20610;DHT22;10463;52.378;9.688;2023-06-14T06:21:36;30.70;17.90
20610;DHT22;10463;52.378;9.688;2023-06-14T06:24:23;30.70;17.90
20610;DHT22;10463;52.378;9.688;2023-06-14T06:27:07;30.70;17.90
20610;DHT22;10463;52.378;9.688;2023-06-14T06:29:52;30.70;17.90
20610;DHT22;10463;52.378;9.688;2023-06-14T06:32:37;30.70;17.90
20610;DHT22;10463;52.378;9.688;2023-06-14T06:35:22;30.70;17.90
20610;DHT22;10463;52.378;9.688;2023-06-14T06:38:06;30.70;17.90
20610;DHT22;10463;52.378;9.688;2023-06-14T06:40:54;30.70;17.90
20610;DHT22;10463;52.378;9.688;2023-06-14T06:43:39;30.70;18.00
20610;DHT22;10463;52.378;9.688;2023-06-14T06:46:26;30.70;18.00
20610;DHT22;10463;52.378;9.688;2023-06-14T06:49:11;30.70;18.60
20610;DHT22;10463;52.378;9.688;2023-06-14T06:52:00;30.70;18.00
20610;DHT22;10463;52.378;9.688;2023-06-14T06:54:47;30.70;18.00
20610;DHT22;10463;52.378;9.688;2023-06-14T06:57:35;30.70;18.00
20610;DHT22;10463;52.378;9.688;2023-06-14T07:00:20;30.70;18.00
20610;DHT22;10463;52.378;9.688;2023-06-14T07:03:05;30.70;18.00
20610;DHT22;10463;52.378;9.688;2023-06-14T07:05:50;30.70;18.00
20610;DHT22;10463;52.378;9.688;2023-06-14T07:08:35;30.70;18.00
20610;DHT22;10463;52.378;9.688;2023-06-14T07:11:20;30.70;18.10
20610;DHT22;10463;52.378;9.688;2023-06-14T07:14:06;30.70;18.10
20610;DHT22;10463;52.378;9.688;2023-06-14T07:16:51;30.70;18.10
20610;DHT22;10463;52.378;9.688;2023-06-14T07:19:36;30.70;18.10
20610;DHT22;10463;52.378;9.688;2023-06-14T07:22:20;30.70;18.10
20610;DHT22;10463;52.378;9.688;2023-06-14T07:25:06;30.70;18.10
20610;DHT22;10463;52.378;9.688;2023-06-14T07:27:52;30.70;18.10
20610;DHT22;10463;52.378;9.688;2023-06-14T07:30:38;30.70;18.10
20610;DHT22;10463;52.378;9.688;2023-06-14T07:33:22;30.70;18.10
20610;DHT22;10463;52.378;9.688;2023-06-14T07:36:08;30.70;18.10
20610;DHT22;10463;52.378;9.688;2023-06-14T07:38:53;30.70;18.10
20610;DHT22;10463;52.378;9.688;2023-06-14T07:41:38;30.70;18.10
20610;DHT22;10463;52.378;9.688;2023-06-14T07:44:23;30.70;18.10
20610;DHT22;10463;52.378;9.688;2023-06-14T07:47:09;30.70;18.10
20610;DHT22;10463;52.378;9.688;2023-06-14T07:49:54;30.70;18.10
20610;DHT22;10463;52.378;9.688;2023-06-14T07:52:39;30.70;18.10
20610;DHT22;10463;52.378;9.688;2023-06-14T07:55:23;30.70;18.10
20610;DHT22;10463;52.378;9.688;2023-06-14T07:58:09;30.70;18.10
20610;DHT22;10463;52.378;9.688;2023-06-14T08:00:55;30.70;18.10
20610;DHT22;10463;52.378;9.688;2023-06-14T08:03:42;30.70;18.10
20610;DHT22;10463;52.378;9.688;2023-06-14T08:06:27;30.70;18.10
20610;DHT22;10463;52.378;9.688;2023-06-14T08:09:12;30.70;18.10
20610;DHT22;10463;52.378;9.688;2023-06-14T08:11:57;30.70;18.10
20610;DHT22;10463;52.378;9.688;2023-06-14T08:14:42;30.70;18.20
20610;DHT22;10463;52.378;9.688;2023-06-14T08:17:27;30.70;18.20
20610;DHT22;10463;52.378;9.688;2023-06-14T08:20:14;30.70;18.10
20610;DHT22;10463;52.378;9.688;2023-06-14T08:23:02;30.70;18.10
20610;DHT22;10463;52.378;9.688;2023-06-14T08:25:46;30.70;18.10
20610;DHT22;10463;52.378;9.688;2023-06-14T08:28:31;30.70;18.10
20610;DHT22;10463;52.378;9.688;2023-06-14T08:31:16;30.70;18.10
20610;DHT22;10463;52.378;9.688;2023-06-14T08:34:01;30.60;18.10
20610;DHT22;10463;52.378;9.688;2023-06-14T08:36:47;30.60;18.10
20610;DHT22;10463;52.378;9.688;2023-06-14T08:39:32;30.60;18.10
20610;DHT22;10463;52.378;9.688;2023-06-14T08:42:19;30.70;18.10
20610;DHT22;10463;52.378;9.688;2023-06-14T08:45:07;30.60;18.10
20610;DHT22;10463;52.378;9.688;2023-06-14T08:47:52;30.60;18.10
20610;DHT22;10463;52.378;9.688;2023-06-14T08:50:41;30.60;18.10
20610;DHT22;10463;52.378;9.688;2023-06-14T08:53:30;30.60;18.10
20610;DHT22;10463;52.378;9.688;2023-06-14T08:56:16;30.60;18.10
20610;DHT22;10463;52.378;9.688;2023-06-14T08:59:02;30.60;18.10
20610;DHT22;10463;52.378;9.688;2023-06-14T09:01:51;30.60;18.10
20610;DHT22;10463;52.378;9.688;2023-06-14T09:04:37;30.60;18.10
20610;DHT22;10463;52.378;9.688;2023-06-14T09:07:21;30.60;18.10
20610;DHT22;10463;52.378;9.688;2023-06-14T09:10:10;30.60;18.10
20610;DHT22;10463;52.378;9.688;2023-06-14T09:12:55;30.60;18.10
20610;DHT22;10463;52.378;9.688;2023-06-14T09:15:40;30.60;18.20
20610;DHT22;10463;52.378;9.688;2023-06-14T09:18:35;30.60;18.20
20610;DHT22;10463;52.378;9.688;2023-06-14T09:21:20;30.60;18.10
20610;DHT22;10463;52.378;9.688;2023-06-14T09:24:06;30.60;18.10
20610;DHT22;10463;52.378;9.688;2023-06-14T09:26:58;30.60;18.20
20610;DHT22;10463;52.378;9.688;2023-06-14T09:29:43;30.60;18.20
20610;DHT22;10463;52.378;9.688;2023-06-14T09:32:28;30.60;18.10
20610;DHT22;10463;52.378;9.688;2023-06-14T09:35:17;30.60;18.10
20610;DHT22;10463;52.378;9.688;2023-06-14T09:38:02;30.60;18.10
20610;DHT22;10463;52.378;9.688;2023-06-14T09:40:47;30.60;18.10
20610;DHT22;10463;52.378;9.688;2023-06-14T09:43:33;30.60;18.20
20610;DHT22;10463;52.378;9.688;2023-06-14T09:46:18;30.60;18.20
20610;DHT22;10463;52.378;9.688;2023-06-14T09:49:05;30.60;18.20
20610;DHT22;10463;52.378;9.688;2023-06-14T09:51:53;30.60;18.20
20610;DHT22;10463;52.378;9.688;2023-06-14T09:54:43;30.60;18.20
20610;DHT22;10463;52.378;9.688;2023-06-14T09:57:29;30.60;18.20
20610;DHT22;10463;52.378;9.688;2023-06-14T10:00:20;30.60;18.20
20610;DHT22;10463;52.378;9.688;2023-06-14T10:03:12;30.60;18.20
20610;DHT22;10463;52.378;9.688;2023-06-14T10:06:02;30.60;18.20
20610;DHT22;10463;52.378;9.688;2023-06-14T10:08:48;30.60;18.20
20610;DHT22;10463;52.378;9.688;2023-06-14T10:11:35;30.60;18.20
20610;DHT22;10463;52.378;9.688;2023-06-14T10:14:20;30.60;18.30
20610;DHT22;10463;52.378;9.688;2023-06-14T10:17:10;30.60;18.30
20610;DHT22;10463;52.378;9.688;2023-06-14T10:20:11;30.60;18.30
20610;DHT22;10463;52.378;9.688;2023-06-14T10:23:05;30.60;18.30
20610;DHT22;10463;52.378;9.688;2023-06-14T10:25:54;30.60;18.30
20610;DHT22;10463;52.378;9.688;2023-06-14T10:28:40;30.60;18.30
20610;DHT22;10463;52.378;9.688;2023-06-14T10:31:41;30.60;18.30
20610;DHT22;10463;52.378;9.688;2023-06-14T10:34:30;30.60;18.30
20610;DHT22;10463;52.378;9.688;2023-06-14T10:37:16;30.60;18.30
20610;DHT22;10463;52.378;9.688;2023-06-14T10:40:01;30.60;18.30
20610;DHT22;10463;52.378;9.688;2023-06-14T10:42:52;30.60;18.30
20610;DHT22;10463;52.378;9.688;2023-06-14T10:45:36;30.60;18.30
20610;DHT22;10463;52.378;9.688;2023-06-14T10:48:30;30.60;18.30
20610;DHT22;10463;52.378;9.688;2023-06-14T10:51:20;30.60;18.30
20610;DHT22;10463;52.378;9.688;2023-06-14T10:54:12;30.60;18.40
20610;DHT22;10463;52.378;9.688;2023-06-14T10:56:58;30.60;18.40
20610;DHT22;10463;52.378;9.688;2023-06-14T10:59:43;30.70;18.40
20610;DHT22;10463;52.378;9.688;2023-06-14T11:03:35;30.60;18.40
20610;DHT22;10463;52.378;9.688;2023-06-14T11:06:26;30.70;18.50
20610;DHT22;10463;52.378;9.688;2023-06-14T11:09:49;30.70;18.50
20610;DHT22;10463;52.378;9.688;2023-06-14T11:12:39;30.70;18.50
20610;DHT22;10463;52.378;9.688;2023-06-14T11:15:30;30.70;18.50
20610;DHT22;10463;52.378;9.688;2023-06-14T11:18:15;30.70;18.50
20610;DHT22;10463;52.378;9.688;2023-06-14T11:21:01;30.70;18.50
20610;DHT22;10463;52.378;9.688;2023-06-14T11:23:53;30.70;18.50
20610;DHT22;10463;52.378;9.688;2023-06-14T11:26:40;30.70;18.50
20610;DHT22;10463;52.378;9.688;2023-06-14T11:29:26;30.70;18.50
20610;DHT22;10463;52.378;9.688;2023-06-14T11:32:13;30.70;18.50
20610;DHT22;10463;52.378;9.688;2023-06-14T11:34:58;30.70;18.50
20610;DHT22;10463;52.378;9.688;2023-06-14T11:37:46;30.70;18.50
20610;DHT22;10463;52.378;9.688;2023-06-14T11:40:33;30.80;18.50
20610;DHT22;10463;52.378;9.688;2023-06-14T11:43:18;30.80;18.50
20610;DHT22;10463;52.378;9.688;2023-06-14T11:46:03;30.80;18.50
20610;DHT22;10463;52.378;9.688;2023-06-14T11:48:47;30.80;18.50
20610;DHT22;10463;52.378;9.688;2023-06-14T11:51:32;30.80;18.50
20610;DHT22;10463;52.378;9.688;2023-06-14T11:54:18;30.80;18.50
20610;DHT22;10463;52.378;9.688;2023-06-14T11:57:06;30.80;18.50
20610;DHT22;10463;52.378;9.688;2023-06-14T11:59:52;30.80;18.50
20610;DHT22;10463;52.378;9.688;2023-06-14T12:02:37;30.80;18.60
20610;DHT22;10463;52.378;9.688;2023-06-14T12:05:23;30.80;18.60
20610;DHT22;10463;52.378;9.688;2023-06-14T12:08:08;30.80;18.50
20610;DHT22;10463;52.378;9.688;2023-06-14T12:10:54;30.90;18.60
20610;DHT22;10463;52.378;9.688;2023-06-14T12:13:40;30.90;18.60
20610;DHT22;10463;52.378;9.688;2023-06-14T12:16:30;30.80;19.10
20610;DHT22;10463;52.378;9.688;2023-06-14T12:19:17;30.90;18.60
20610;DHT22;10463;52.378;9.688;2023-06-14T12:22:04;30.90;18.60
20610;DHT22;10463;52.378;9.688;2023-06-14T12:24:49;30.90;18.60
20610;DHT22;10463;52.378;9.688;2023-06-14T12:27:34;30.90;18.70
20610;DHT22;10463;52.378;9.688;2023-06-14T12:30:20;30.90;18.60
20610;DHT22;10463;52.378;9.688;2023-06-14T12:33:06;30.90;18.70
20610;DHT22;10463;52.378;9.688;2023-06-14T12:35:55;31.00;18.70
20610;DHT22;10463;52.378;9.688;2023-06-14T12:38:41;31.00;18.80
20610;DHT22;10463;52.378;9.688;2023-06-14T12:41:26;31.00;18.70
20610;DHT22;10463;52.378;9.688;2023-06-14T12:44:12;31.00;18.80
20610;DHT22;10463;52.378;9.688;2023-06-14T12:46:58;31.00;18.70
20610;DHT22;10463;52.378;9.688;2023-06-14T12:49:43;31.00;18.70
20610;DHT22;10463;52.378;9.688;2023-06-14T12:52:28;31.00;18.80
20610;DHT22;10463;52.378;9.688;2023-06-14T12:55:12;31.10;18.80
20610;DHT22;10463;52.378;9.688;2023-06-14T12:57:58;31.10;18.80
20610;DHT22;10463;52.378;9.688;2023-06-14T13:03:33;31.10;18.80
20610;DHT22;10463;52.378;9.688;2023-06-14T13:06:20;31.10;18.80
20610;DHT22;10463;52.378;9.688;2023-06-14T13:09:05;31.10;18.80
20610;DHT22;10463;52.378;9.688;2023-06-14T13:11:50;31.10;18.80
20610;DHT22;10463;52.378;9.688;2023-06-14T13:14:34;31.10;18.80
20610;DHT22;10463;52.378;9.688;2023-06-14T13:17:20;31.20;18.80
20610;DHT22;10463;52.378;9.688;2023-06-14T13:20:07;31.20;18.80
20610;DHT22;10463;52.378;9.688;2023-06-14T13:22:52;31.20;18.80
20610;DHT22;10463;52.378;9.688;2023-06-14T13:25:37;31.20;18.80
20610;DHT22;10463;52.378;9.688;2023-06-14T13:28:22;31.20;18.80
20610;DHT22;10463;52.378;9.688;2023-06-14T13:31:07;31.20;18.80
20610;DHT22;10463;52.378;9.688;2023-06-14T13:33:51;31.20;18.80
20610;DHT22;10463;52.378;9.688;2023-06-14T13:36:37;31.20;18.80
20610;DHT22;10463;52.378;9.688;2023-06-14T13:39:22;31.30;18.80
20610;DHT22;10463;52.378;9.688;2023-06-14T13:42:07;31.30;18.80
20610;DHT22;10463;52.378;9.688;2023-06-14T13:44:52;31.30;18.80
20610;DHT22;10463;52.378;9.688;2023-06-14T13:47:37;31.30;18.80
20610;DHT22;10463;52.378;9.688;2023-06-14T13:50:22;31.30;18.80
20610;DHT22;10463;52.378;9.688;2023-06-14T13:53:08;31.30;18.80
20610;DHT22;10463;52.378;9.688;2023-06-14T13:55:53;31.40;18.90
20610;DHT22;10463;52.378;9.688;2023-06-14T13:58:38;31.40;18.80
20610;DHT22;10463;52.378;9.688;2023-06-14T14:01:23;31.40;18.80
20610;DHT22;10463;52.378;9.688;2023-06-14T14:04:10;31.40;18.90
20610;DHT22;10463;52.378;9.688;2023-06-14T14:06:56;31.40;18.90
20610;DHT22;10463;52.378;9.688;2023-06-14T14:09:42;31.50;18.90
20610;DHT22;10463;52.378;9.688;2023-06-14T14:12:27;31.50;18.90
20610;DHT22;10463;52.378;9.688;2023-06-14T14:15:13;31.50;18.90
20610;DHT22;10463;52.378;9.688;2023-06-14T14:17:59;31.50;18.90
20610;DHT22;10463;52.378;9.688;2023-06-14T14:20:43;31.50;18.90
20610;DHT22;10463;52.378;9.688;2023-06-14T14:23:28;31.50;18.90
20610;DHT22;10463;52.378;9.688;2023-06-14T14:26:14;31.50;18.90
20610;DHT22;10463;52.378;9.688;2023-06-14T14:29:00;31.50;18.80
20610;DHT22;10463;52.378;9.688;2023-06-14T14:31:46;31.50;18.80
20610;DHT22;10463;52.378;9.688;2023-06-14T14:34:31;31.50;18.90
20610;DHT22;10463;52.378;9.688;2023-06-14T14:37:16;31.50;18.90
20610;DHT22;10463;52.378;9.688;2023-06-14T14:40:01;31.50;18.80
20610;DHT22;10463;52.378;9.688;2023-06-14T14:42:48;31.50;18.90
20610;DHT22;10463;52.378;9.688;2023-06-14T14:45:33;31.60;18.90
20610;DHT22;10463;52.378;9.688;2023-06-14T14:48:17;31.60;18.90
20610;DHT22;10463;52.378;9.688;2023-06-14T14:51:02;31.50;18.90
20610;DHT22;10463;52.378;9.688;2023-06-14T14:53:47;31.60;18.90
20610;DHT22;10463;52.378;9.688;2023-06-14T14:56:32;31.60;18.90
20610;DHT22;10463;52.378;9.688;2023-06-14T14:59:19;31.60;18.90
20610;DHT22;10463;52.378;9.688;2023-06-14T15:02:06;31.60;19.00
20610;DHT22;10463;52.378;9.688;2023-06-14T15:04:51;31.60;19.00
20610;DHT22;10463;52.378;9.688;2023-06-14T15:07:36;31.60;19.00
20610;DHT22;10463;52.378;9.688;2023-06-14T15:10:21;31.60;19.00
20610;DHT22;10463;52.378;9.688;2023-06-14T15:13:06;31.60;19.00
20610;DHT22;10463;52.378;9.688;2023-06-14T15:15:53;31.70;19.10
20610;DHT22;10463;52.378;9.688;2023-06-14T15:18:38;31.70;19.10
20610;DHT22;10463;52.378;9.688;2023-06-14T15:21:22;31.70;19.10
20610;DHT22;10463;52.378;9.688;2023-06-14T15:24:08;31.70;19.20
20610;DHT22;10463;52.378;9.688;2023-06-14T15:27:09;31.70;19.20
20610;DHT22;10463;52.378;9.688;2023-06-14T15:30:01;31.70;19.20
20610;DHT22;10463;52.378;9.688;2023-06-14T15:32:47;31.70;19.20
20610;DHT22;10463;52.378;9.688;2023-06-14T15:35:32;31.70;19.20
20610;DHT22;10463;52.378;9.688;2023-06-14T15:38:17;31.70;19.20
20610;DHT22;10463;52.378;9.688;2023-06-14T15:41:03;31.70;19.10
20610;DHT22;10463;52.378;9.688;2023-06-14T15:44:02;31.70;19.10
20610;DHT22;10463;52.378;9.688;2023-06-14T15:46:54;31.70;19.10
20610;DHT22;10463;52.378;9.688;2023-06-14T15:49:40;31.70;19.10
20610;DHT22;10463;52.378;9.688;2023-06-14T15:52:25;31.80;19.20
20610;DHT22;10463;52.378;9.688;2023-06-14T15:55:09;31.70;19.10
20610;DHT22;10463;52.378;9.688;2023-06-14T15:57:54;31.80;19.10
20610;DHT22;10463;52.378;9.688;2023-06-14T16:00:39;31.80;19.10
20610;DHT22;10463;52.378;9.688;2023-06-14T16:03:24;31.80;19.10
20610;DHT22;10463;52.378;9.688;2023-06-14T16:06:10;31.80;19.10
20610;DHT22;10463;52.378;9.688;2023-06-14T16:08:55;31.80;19.10
20610;DHT22;10463;52.378;9.688;2023-06-14T16:11:40;31.80;19.10
20610;DHT22;10463;52.378;9.688;2023-06-14T16:14:25;31.80;19.00
20610;DHT22;10463;52.378;9.688;2023-06-14T16:17:09;31.80;19.00
20610;DHT22;10463;52.378;9.688;2023-06-14T16:19:54;31.80;18.90
20610;DHT22;10463;52.378;9.688;2023-06-14T16:22:41;31.80;18.90
20610;DHT22;10463;52.378;9.688;2023-06-14T16:25:26;31.80;18.80
20610;DHT22;10463;52.378;9.688;2023-06-14T16:28:11;31.80;18.80
20610;DHT22;10463;52.378;9.688;2023-06-14T16:30:55;31.80;19.30
20610;DHT22;10463;52.378;9.688;2023-06-14T16:33:40;31.80;18.70
20610;DHT22;10463;52.378;9.688;2023-06-14T16:36:25;31.80;18.70
20610;DHT22;10463;52.378;9.688;2023-06-14T16:39:11;31.80;18.70
20610;DHT22;10463;52.378;9.688;2023-06-14T16:41:56;31.80;18.70
20610;DHT22;10463;52.378;9.688;2023-06-14T16:44:40;31.80;18.70
20610;DHT22;10463;52.378;9.688;2023-06-14T16:47:25;31.80;18.70
20610;DHT22;10463;52.378;9.688;2023-06-14T16:50:10;31.80;18.60
20610;DHT22;10463;52.378;9.688;2023-06-14T16:52:55;31.80;18.60
20610;DHT22;10463;52.378;9.688;2023-06-14T16:55:42;31.80;18.60
20610;DHT22;10463;52.378;9.688;2023-06-14T16:58:28;31.80;18.60
20610;DHT22;10463;52.378;9.688;2023-06-14T17:01:12;31.80;18.60
20610;DHT22;10463;52.378;9.688;2023-06-14T17:03:57;31.80;18.60
20610;DHT22;10463;52.378;9.688;2023-06-14T17:06:41;31.80;18.60
20610;DHT22;10463;52.378;9.688;2023-06-14T17:09:26;31.80;18.60
20610;DHT22;10463;52.378;9.688;2023-06-14T17:12:13;31.70;18.50
20610;DHT22;10463;52.378;9.688;2023-06-14T17:14:57;31.80;18.70
20610;DHT22;10463;52.378;9.688;2023-06-14T17:17:42;31.70;18.60
20610;DHT22;10463;52.378;9.688;2023-06-14T17:20:26;31.70;18.70
20610;DHT22;10463;52.378;9.688;2023-06-14T17:23:12;31.80;18.80
20610;DHT22;10463;52.378;9.688;2023-06-14T17:25:57;31.80;18.90
20610;DHT22;10463;52.378;9.688;2023-06-14T17:28:43;31.70;18.90
20610;DHT22;10463;52.378;9.688;2023-06-14T17:31:27;31.80;19.00
20610;DHT22;10463;52.378;9.688;2023-06-14T17:34:12;31.70;18.90
20610;DHT22;10463;52.378;9.688;2023-06-14T17:36:56;31.80;19.00